createdAt,value
2023-05-23T00:00:44.206Z,31.53
2023-05-23T00:01:34.277Z,30.31
2023-05-23T00:02:24.411Z,31.20
2023-05-23T00:03:14.466Z,31.90
2023-05-23T00:04:04.515Z,31.01
2023-05-23T00:04:54.518Z,28.46
2023-05-23T00:05:44.592Z,26.68
2023-05-23T00:06:34.729Z,32.10
2023-05-23T00:07:24.734Z,32.79
2023-05-23T00:08:14.939Z,29.58
2023-05-23T00:09:04.869Z,33.01
2023-05-23T00:09:54.888Z,35.39
2023-05-23T00:10:44.975Z,28.92
2023-05-23T00:11:35.026Z,31.08
2023-05-23T00:12:25.105Z,30.08
2023-05-23T00:13:15.171Z,27.55
2023-05-23T00:14:05.259Z,29.36
2023-05-23T00:14:55.294Z,30.86
2023-05-23T00:15:45.362Z,33.73
2023-05-23T00:16:35.440Z,31.19
2023-05-23T00:17:25.810Z,27.87
2023-05-23T00:18:15.548Z,32.71
2023-05-23T00:19:05.826Z,27.73
2023-05-23T00:19:55.676Z,31.12
2023-05-23T00:20:45.750Z,25.09
2023-05-23T00:21:35.828Z,30.17
2023-05-23T00:22:25.904Z,31.36
2023-05-23T00:23:15.958Z,29.35
2023-05-23T00:24:06.171Z,30.96
2023-05-23T00:24:56.097Z,27.53
2023-05-23T00:25:46.161Z,31.09
2023-05-23T00:26:36.225Z,29.77
2023-05-23T00:27:26.306Z,30.47
2023-05-23T00:28:16.386Z,25.67
2023-05-23T00:29:06.473Z,31.37
2023-05-23T00:29:56.492Z,28.74
2023-05-23T00:30:46.611Z,33.07
2023-05-23T00:31:36.625Z,27.97
2023-05-23T00:32:26.699Z,28.85
2023-05-23T00:33:16.741Z,31.57
2023-05-23T00:34:06.832Z,32.15
2023-05-23T00:34:56.856Z,33.07
2023-05-23T00:35:46.940Z,35.64
2023-05-23T00:36:36.994Z,30.92
2023-05-23T00:37:27.062Z,32.39
2023-05-23T00:38:17.136Z,25.40
2023-05-23T00:39:07.213Z,32.53
2023-05-23T00:39:57.349Z,28.37
2023-05-23T00:40:47.273Z,26.17
2023-05-23T00:41:37.353Z,25.20
2023-05-23T00:42:27.409Z,30.64
2023-05-23T00:43:17.481Z,31.45
2023-05-23T00:44:07.561Z,27.63
2023-05-23T00:44:57.581Z,25.36
2023-05-23T00:45:47.647Z,31.19
2023-05-23T00:46:37.730Z,27.79
2023-05-23T00:47:27.809Z,30.21
2023-05-23T00:48:17.858Z,33.69
2023-05-23T00:49:07.947Z,31.36
2023-05-23T00:49:57.966Z,32.49
2023-05-23T00:50:48.039Z,26.33
2023-05-23T00:51:38.104Z,26.90
2023-05-23T00:52:28.176Z,25.24
2023-05-23T00:53:18.247Z,25.85
2023-05-23T00:54:08.343Z,25.57
2023-05-23T00:54:58.360Z,25.00
2023-05-23T00:55:48.565Z,26.04
2023-05-23T00:56:38.572Z,26.43
2023-05-23T00:57:28.546Z,29.28
2023-05-23T00:58:18.616Z,32.00
2023-05-23T00:59:08.710Z,29.55
2023-05-23T00:59:58.750Z,28.41
2023-05-23T01:00:48.769Z,29.46
2023-05-23T01:01:38.849Z,32.41
2023-05-23T01:02:28.978Z,39.56
2023-05-23T01:03:19.058Z,47.49
2023-05-23T01:04:09.111Z,49.50
2023-05-23T01:04:59.099Z,54.11
2023-05-23T01:05:49.188Z,53.12
2023-05-23T01:06:39.250Z,50.60
2023-05-23T01:07:29.318Z,47.79
2023-05-23T01:08:19.339Z,52.92
2023-05-23T01:09:09.432Z,53.85
2023-05-23T01:09:59.452Z,54.74
2023-05-23T01:10:49.525Z,54.35
2023-05-23T01:11:39.717Z,51.67
2023-05-23T01:12:29.651Z,49.81
2023-05-23T01:13:19.722Z,48.42
2023-05-23T01:14:09.916Z,53.77
2023-05-23T01:14:59.849Z,53.63
2023-05-23T01:15:49.921Z,52.68
2023-05-23T01:16:40.032Z,53.36
2023-05-23T01:17:30.169Z,52.90
2023-05-23T01:18:20.112Z,56.80
2023-05-23T01:19:10.248Z,52.98
2023-05-23T01:20:00.258Z,55.08
2023-05-23T01:20:50.272Z,49.48
2023-05-23T01:21:40.338Z,51.99
2023-05-23T01:22:30.417Z,51.28
2023-05-23T01:23:20.476Z,53.50
2023-05-23T01:24:10.565Z,56.27
2023-05-23T01:25:00.594Z,54.67
2023-05-23T01:25:50.661Z,57.11
2023-05-23T01:26:40.743Z,54.96
2023-05-23T01:27:30.922Z,53.48
2023-05-23T01:28:20.845Z,55.61
2023-05-23T01:29:10.940Z,54.58
2023-05-23T01:30:00.963Z,54.65
2023-05-23T01:30:51.028Z,55.58
2023-05-23T01:31:41.120Z,55.07
2023-05-23T01:32:31.288Z,54.78
2023-05-23T01:33:21.207Z,55.85
2023-05-23T01:34:11.285Z,59.19
2023-05-23T01:35:01.317Z,54.81
2023-05-23T01:35:51.388Z,53.18
2023-05-23T01:36:41.457Z,55.57
2023-05-23T01:37:31.540Z,55.00
2023-05-23T01:38:21.609Z,54.65
2023-05-23T01:39:11.703Z,53.15
2023-05-23T01:40:01.731Z,56.50
2023-05-23T01:40:51.801Z,52.29
2023-05-23T01:41:41.881Z,54.65
2023-05-23T01:42:31.939Z,53.68
2023-05-23T01:43:22.124Z,55.14
2023-05-23T01:44:12.084Z,50.99
2023-05-23T01:45:02.096Z,54.10
2023-05-23T01:45:52.149Z,51.90
2023-05-23T01:46:42.213Z,51.92
2023-05-23T01:47:32.301Z,49.94
2023-05-23T01:48:22.358Z,47.36
2023-05-23T01:49:12.444Z,51.35
2023-05-23T01:50:02.468Z,51.71
2023-05-23T01:50:52.541Z,51.54
2023-05-23T01:51:42.605Z,52.10
2023-05-23T01:52:32.673Z,52.42
2023-05-23T01:53:22.715Z,48.46
2023-05-23T01:54:12.790Z,47.87
2023-05-23T01:55:02.817Z,49.93
2023-05-23T01:55:52.872Z,46.24
2023-05-23T01:56:42.927Z,49.58
2023-05-23T01:57:33.005Z,47.64
2023-05-23T01:58:23.094Z,45.93
2023-05-23T01:59:13.293Z,44.70
2023-05-23T02:00:03.182Z,48.90
2023-05-23T02:00:53.293Z,47.20
2023-05-23T02:01:43.364Z,44.25
2023-05-23T02:02:33.427Z,44.12
2023-05-23T02:03:23.489Z,45.15
2023-05-23T02:04:13.472Z,47.47
2023-05-23T02:05:03.500Z,46.15
2023-05-23T02:05:53.565Z,49.76
2023-05-23T02:06:43.626Z,47.06
2023-05-23T02:07:33.698Z,48.62
2023-05-23T02:08:23.771Z,45.90
2023-05-23T02:09:13.855Z,46.35
2023-05-23T02:10:03.882Z,43.91
2023-05-23T02:10:53.963Z,46.34
2023-05-23T02:11:44.021Z,45.60
2023-05-23T02:12:34.090Z,39.93
2023-05-23T02:13:24.158Z,42.89
2023-05-23T02:14:14.242Z,44.09
2023-05-23T02:15:04.387Z,44.69
2023-05-23T02:15:54.320Z,44.42
2023-05-23T02:16:44.399Z,42.40
2023-05-23T02:17:34.487Z,43.59
2023-05-23T02:18:24.556Z,44.18
2023-05-23T02:19:14.669Z,42.47
2023-05-23T02:20:04.617Z,40.37
2023-05-23T02:20:54.692Z,45.16
2023-05-23T02:21:44.751Z,44.84
2023-05-23T02:22:34.825Z,46.98
2023-05-23T02:23:24.907Z,46.66
2023-05-23T02:24:14.992Z,47.70
2023-05-23T02:25:05.008Z,41.60
2023-05-23T02:25:55.081Z,41.69
2023-05-23T02:26:45.146Z,45.29
2023-05-23T02:27:35.213Z,45.66
2023-05-23T02:28:25.287Z,49.31
2023-05-23T02:29:15.382Z,50.14
2023-05-23T02:30:05.390Z,45.48
2023-05-23T02:30:55.506Z,48.16
2023-05-23T02:31:45.544Z,46.81
2023-05-23T02:32:35.597Z,47.41
2023-05-23T02:33:25.664Z,45.52
2023-05-23T02:34:15.719Z,47.31
2023-05-23T02:35:05.752Z,47.81
2023-05-23T02:35:55.820Z,48.32
2023-05-23T02:36:45.844Z,42.48
2023-05-23T02:37:35.938Z,44.58
2023-05-23T02:38:25.981Z,41.28
2023-05-23T02:39:16.055Z,43.11
2023-05-23T02:40:06.122Z,42.56
2023-05-23T02:40:56.209Z,46.63
2023-05-23T02:41:46.225Z,48.78
2023-05-23T02:42:36.308Z,47.19
2023-05-23T02:43:26.328Z,51.52
2023-05-23T02:44:16.425Z,46.98
2023-05-23T02:45:06.459Z,46.59
2023-05-23T02:45:56.570Z,49.29
2023-05-23T02:46:46.720Z,49.98
2023-05-23T02:47:36.657Z,42.84
2023-05-23T02:48:26.731Z,45.71
2023-05-23T02:49:16.773Z,48.32
2023-05-23T02:50:06.786Z,42.87
2023-05-23T02:50:56.873Z,45.60
2023-05-23T02:51:46.941Z,45.84
2023-05-23T02:52:37.002Z,45.40
2023-05-23T02:53:27.078Z,51.87
2023-05-23T02:54:17.176Z,52.67
2023-05-23T02:55:07.199Z,49.87
2023-05-23T02:55:57.270Z,51.75
2023-05-23T02:56:47.337Z,49.05
2023-05-23T02:57:37.415Z,46.93
2023-05-23T02:58:27.479Z,45.03
2023-05-23T02:59:17.560Z,49.88
2023-05-23T03:00:07.583Z,49.14
2023-05-23T03:00:57.656Z,46.22
2023-05-23T03:01:47.777Z,44.38
2023-05-23T03:02:38.136Z,43.51
2023-05-23T03:03:27.911Z,43.03
2023-05-23T03:04:17.898Z,42.91
2023-05-23T03:05:07.936Z,39.95
2023-05-23T03:05:58.014Z,41.37
2023-05-23T03:06:48.095Z,39.78
2023-05-23T03:07:38.128Z,44.70
2023-05-23T03:08:28.173Z,40.56
2023-05-23T03:09:18.259Z,40.41
2023-05-23T03:10:08.298Z,38.40
2023-05-23T03:10:58.340Z,40.95
2023-05-23T03:11:48.414Z,48.03
2023-05-23T03:12:38.442Z,41.09
2023-05-23T03:13:28.478Z,40.63
2023-05-23T03:14:18.559Z,40.99
2023-05-23T03:15:08.575Z,39.37
2023-05-23T03:15:58.631Z,43.67
2023-05-23T03:16:48.675Z,43.35
2023-05-23T03:17:38.767Z,40.39
2023-05-23T03:18:28.897Z,45.33
2023-05-23T03:19:18.866Z,44.76
2023-05-23T03:20:08.884Z,45.01
2023-05-23T03:20:58.952Z,42.88
2023-05-23T03:21:49.026Z,42.79
2023-05-23T03:22:39.137Z,42.53
2023-05-23T03:23:29.093Z,37.42
2023-05-23T03:24:19.294Z,36.67
2023-05-23T03:25:09.231Z,35.54
2023-05-23T03:25:59.299Z,32.99
2023-05-23T03:26:49.335Z,35.20
2023-05-23T03:27:39.450Z,31.38
2023-05-23T03:28:29.457Z,32.33
2023-05-23T03:29:19.529Z,29.44
2023-05-23T03:30:09.552Z,25.00
2023-05-23T03:30:59.641Z,26.15
2023-05-23T03:31:49.645Z,25.58
2023-05-23T03:32:39.830Z,28.41
2023-05-23T03:33:29.719Z,27.87
2023-05-23T03:34:20.005Z,25.00
2023-05-23T03:35:09.797Z,24.84
2023-05-23T03:35:59.880Z,25.00
2023-05-23T03:36:49.917Z,25.00
2023-05-23T03:37:40.026Z,25.00
2023-05-23T03:38:30.024Z,25.00
2023-05-23T03:39:20.113Z,25.00
2023-05-23T03:40:10.107Z,26.49
2023-05-23T03:41:00.226Z,34.45
2023-05-23T03:41:50.210Z,40.36
2023-05-23T03:42:40.372Z,40.01
2023-05-23T03:43:30.315Z,29.19
2023-05-23T03:44:20.462Z,25.69
2023-05-23T03:45:10.413Z,30.36
2023-05-23T03:46:00.502Z,30.20
2023-05-23T03:46:50.500Z,30.67
2023-05-23T03:47:40.651Z,27.81
2023-05-23T03:48:30.628Z,27.85
2023-05-23T03:49:20.699Z,27.30
2023-05-23T03:50:10.874Z,29.06
2023-05-23T03:51:00.909Z,28.63
2023-05-23T03:51:50.858Z,25.00
2023-05-23T03:52:40.952Z,25.01
2023-05-23T03:53:31.001Z,26.00
2023-05-23T03:54:21.146Z,27.76
2023-05-23T03:55:11.126Z,26.90
2023-05-23T03:56:01.249Z,28.26
2023-05-23T03:56:51.245Z,28.18
2023-05-23T03:57:41.297Z,29.67
2023-05-23T03:58:31.336Z,31.90
2023-05-23T03:59:21.480Z,27.67
2023-05-23T04:00:11.420Z,29.82
2023-05-23T04:01:02.133Z,25.55
2023-05-23T04:01:51.571Z,25.73
2023-05-23T04:02:41.884Z,25.04
2023-05-23T04:03:31.805Z,25.38
2023-05-23T04:04:21.897Z,25.27
2023-05-23T04:05:11.777Z,26.35
2023-05-23T04:06:02.068Z,26.94
2023-05-23T04:06:51.916Z,25.46
2023-05-23T04:07:41.996Z,25.53
2023-05-23T04:08:32.005Z,28.17
2023-05-23T04:09:22.173Z,27.82
2023-05-23T04:10:12.129Z,30.05
2023-05-23T04:11:02.178Z,33.22
2023-05-23T04:11:52.206Z,35.15
2023-05-23T04:12:42.429Z,30.10
2023-05-23T04:13:32.288Z,34.05
2023-05-23T04:14:22.422Z,36.34
2023-05-23T04:15:12.414Z,37.67
2023-05-23T04:16:02.543Z,35.07
2023-05-23T04:16:52.485Z,34.94
2023-05-23T04:17:42.579Z,34.84
2023-05-23T04:18:32.609Z,33.04
2023-05-23T04:19:22.806Z,33.01
2023-05-23T04:20:12.734Z,31.85
2023-05-23T04:21:02.863Z,33.11
2023-05-23T04:21:52.961Z,28.19
2023-05-23T04:22:42.903Z,26.32
2023-05-23T04:23:32.888Z,28.23
2023-05-23T04:24:22.995Z,30.89
2023-05-23T04:25:13.009Z,30.76
2023-05-23T04:26:03.103Z,32.41
2023-05-23T04:26:53.129Z,35.43
2023-05-23T04:27:43.251Z,34.59
2023-05-23T04:28:33.227Z,30.85
2023-05-23T04:29:23.330Z,27.90
2023-05-23T04:30:13.353Z,26.51
2023-05-23T04:31:03.520Z,27.34
2023-05-23T04:31:53.518Z,26.88
2023-05-23T04:32:43.610Z,25.28
2023-05-23T04:33:33.624Z,26.95
2023-05-23T04:34:23.779Z,26.92
2023-05-23T04:35:14.668Z,25.85
2023-05-23T04:36:03.887Z,26.20
2023-05-23T04:36:53.843Z,26.73
2023-05-23T04:37:44.056Z,25.00
2023-05-23T04:38:33.958Z,27.26
2023-05-23T04:39:24.109Z,26.38
2023-05-23T04:40:14.052Z,25.00
2023-05-23T04:41:04.154Z,29.99
2023-05-23T04:41:54.178Z,26.92
2023-05-23T04:42:44.246Z,27.79
2023-05-23T04:43:34.322Z,26.56
2023-05-23T04:44:24.413Z,26.32
2023-05-23T04:45:14.436Z,25.33
2023-05-23T04:46:04.532Z,25.82
2023-05-23T04:46:54.611Z,27.03
2023-05-23T04:47:44.669Z,28.14
2023-05-23T04:48:34.709Z,27.66
2023-05-23T04:49:24.766Z,27.98
2023-05-23T04:50:14.789Z,25.25
2023-05-23T04:51:04.863Z,28.82
2023-05-23T04:51:54.940Z,26.87
2023-05-23T04:52:45.005Z,28.35
2023-05-23T04:53:35.154Z,26.47
2023-05-23T04:54:25.111Z,28.43
2023-05-23T04:55:15.147Z,28.50
2023-05-23T04:56:05.218Z,29.65
2023-05-23T04:56:55.243Z,28.74
2023-05-23T04:57:45.315Z,30.09
2023-05-23T04:58:35.391Z,27.85
2023-05-23T04:59:25.467Z,26.22
2023-05-23T05:00:15.495Z,29.27
2023-05-23T05:01:05.599Z,31.06
2023-05-23T05:01:55.591Z,30.18
2023-05-23T05:02:45.692Z,27.99
2023-05-23T05:03:35.760Z,32.01
2023-05-23T05:04:26.006Z,26.03
2023-05-23T05:05:15.848Z,27.80
2023-05-23T05:06:05.877Z,29.31
2023-05-23T05:06:55.924Z,27.62
2023-05-23T05:07:45.990Z,26.41
2023-05-23T05:08:36.059Z,27.55
2023-05-23T05:09:26.272Z,30.14
2023-05-23T05:10:16.227Z,30.11
2023-05-23T05:11:06.271Z,34.27
2023-05-23T05:11:56.332Z,33.94
2023-05-23T05:12:46.409Z,31.60
2023-05-23T05:13:36.493Z,30.85
2023-05-23T05:14:26.566Z,26.35
2023-05-23T05:15:16.596Z,27.16
2023-05-23T05:16:06.674Z,25.54
2023-05-23T05:16:56.746Z,28.96
2023-05-23T05:17:49.584Z,25.33
2023-05-23T05:18:36.851Z,25.33
2023-05-23T05:19:26.992Z,25.46
2023-05-23T05:20:16.940Z,25.60
2023-05-23T05:21:06.992Z,27.74
2023-05-23T05:21:57.051Z,28.48
2023-05-23T05:22:47.115Z,31.06
2023-05-23T05:23:37.198Z,30.49
2023-05-23T05:24:27.267Z,26.69
2023-05-23T05:25:17.425Z,27.38
2023-05-23T05:26:07.365Z,30.47
2023-05-23T05:26:57.396Z,31.53
2023-05-23T05:27:47.429Z,29.02
2023-05-23T05:28:37.506Z,27.66
2023-05-23T05:29:27.581Z,28.85
2023-05-23T05:30:17.639Z,27.85
2023-05-23T05:31:07.880Z,28.67
2023-05-23T05:31:57.770Z,33.70
2023-05-23T05:32:47.931Z,31.01
2023-05-23T05:33:37.901Z,28.66
2023-05-23T05:34:27.933Z,27.86
2023-05-23T05:35:17.994Z,31.60
2023-05-23T05:36:08.059Z,31.65
2023-05-23T05:36:58.101Z,31.35
2023-05-23T05:37:48.135Z,31.37
2023-05-23T05:38:38.160Z,31.12
2023-05-23T05:39:28.236Z,29.44
2023-05-23T05:40:18.334Z,27.81
2023-05-23T05:41:09.294Z,28.00
2023-05-23T05:41:58.453Z,31.54
2023-05-23T05:42:48.486Z,31.55
2023-05-23T05:43:38.553Z,31.82
2023-05-23T05:44:28.615Z,30.96
2023-05-23T05:45:18.683Z,30.53
2023-05-23T05:46:08.782Z,31.09
2023-05-23T05:46:58.812Z,31.12
2023-05-23T05:47:48.899Z,31.47
2023-05-23T05:48:38.907Z,29.13
2023-05-23T05:49:28.983Z,31.86
2023-05-23T05:50:19.057Z,32.73
2023-05-23T05:51:09.137Z,30.95
2023-05-23T05:51:59.172Z,33.13
2023-05-23T05:52:49.200Z,32.46
2023-05-23T05:53:39.341Z,33.00
2023-05-23T05:54:29.316Z,27.91
2023-05-23T05:55:19.414Z,27.59
2023-05-23T05:56:09.543Z,28.00
2023-05-23T05:56:59.627Z,27.06
2023-05-23T05:57:49.554Z,28.91
2023-05-23T05:58:39.629Z,28.46
2023-05-23T05:59:31.882Z,28.53
2023-05-23T06:00:19.742Z,28.50
2023-05-23T06:01:09.856Z,28.71
2023-05-23T06:01:59.868Z,28.83
2023-05-23T06:02:49.943Z,28.11
2023-05-23T06:03:40.050Z,28.42
2023-05-23T06:04:30.002Z,31.21
2023-05-23T06:05:20.062Z,26.14
2023-05-23T06:06:10.142Z,28.46
2023-05-23T06:07:00.219Z,28.97
2023-05-23T06:07:50.274Z,28.01
2023-05-23T06:08:40.342Z,28.75
2023-05-23T06:09:30.406Z,29.51
2023-05-23T06:10:20.491Z,29.43
2023-05-23T06:11:10.535Z,29.31
2023-05-23T06:12:00.585Z,27.47
2023-05-23T06:12:50.737Z,27.60
2023-05-23T06:13:40.685Z,26.49
2023-05-23T06:14:30.733Z,30.85
2023-05-23T06:15:20.779Z,33.14
2023-05-23T06:16:10.900Z,36.27
2023-05-23T06:17:00.907Z,38.16
2023-05-23T06:17:51.015Z,33.59
2023-05-23T06:18:40.994Z,32.43
2023-05-23T06:19:31.115Z,33.99
2023-05-23T06:20:21.107Z,36.52
2023-05-23T06:21:11.161Z,34.17
2023-05-23T06:22:01.213Z,33.70
2023-05-23T06:22:51.255Z,34.50
2023-05-23T06:23:41.313Z,32.22
2023-05-23T06:24:31.359Z,32.80
2023-05-23T06:25:21.389Z,32.28
2023-05-23T06:26:11.464Z,31.40
2023-05-23T06:27:01.542Z,28.64
2023-05-23T06:27:51.570Z,32.83
2023-05-23T06:28:41.770Z,29.71
2023-05-23T06:29:31.709Z,30.68
2023-05-23T06:30:21.746Z,30.29
2023-05-23T06:31:11.919Z,30.91
2023-05-23T06:32:01.999Z,32.56
2023-05-23T06:32:51.977Z,31.42
2023-05-23T06:33:41.974Z,32.07
2023-05-23T06:34:32.051Z,32.63
2023-05-23T06:35:22.081Z,31.45
2023-05-23T06:36:12.152Z,37.05
2023-05-23T06:37:02.240Z,36.32
2023-05-23T06:37:52.273Z,37.83
2023-05-23T06:38:42.306Z,38.20
2023-05-23T06:39:32.371Z,35.90
2023-05-23T06:40:22.402Z,34.86
2023-05-23T06:41:12.476Z,38.57
2023-05-23T06:42:02.564Z,43.63
2023-05-23T06:42:52.590Z,43.03
2023-05-23T06:43:42.616Z,41.78
2023-05-23T06:44:32.813Z,42.11
2023-05-23T06:45:22.737Z,40.63
2023-05-23T06:46:12.846Z,39.27
2023-05-23T06:47:02.853Z,40.29
2023-05-23T06:47:52.888Z,41.19
2023-05-23T06:48:42.914Z,38.25
2023-05-23T06:49:34.031Z,43.78
2023-05-23T06:50:23.018Z,45.95
2023-05-23T06:51:13.227Z,48.61
2023-05-23T06:52:03.146Z,51.95
2023-05-23T06:52:53.166Z,51.04
2023-05-23T06:53:43.237Z,53.10
2023-05-23T06:54:33.301Z,52.23
2023-05-23T06:55:23.362Z,49.21
2023-05-23T06:56:13.435Z,47.12
2023-05-23T06:57:03.547Z,49.01
2023-05-23T06:57:53.561Z,50.45
2023-05-23T06:58:45.188Z,51.18
2023-05-23T06:59:33.694Z,49.84
2023-05-23T07:00:23.972Z,49.26
2023-05-23T07:01:13.926Z,51.64
2023-05-23T07:02:03.960Z,50.75
2023-05-23T07:02:54.015Z,50.49
2023-05-23T07:03:44.035Z,50.47
2023-05-23T07:04:34.079Z,51.82
2023-05-23T07:05:24.176Z,53.30
2023-05-23T07:06:14.214Z,52.86
2023-05-23T07:07:04.298Z,53.02
2023-05-23T07:07:54.320Z,52.39
2023-05-23T07:08:44.374Z,54.14
2023-05-23T07:09:34.439Z,56.43
2023-05-23T07:10:24.493Z,58.20
2023-05-23T07:11:14.536Z,56.93
2023-05-23T07:12:04.628Z,55.13
2023-05-23T07:12:54.657Z,55.31
2023-05-23T07:13:44.725Z,60.23
2023-05-23T07:14:34.799Z,65.17
2023-05-23T07:15:24.858Z,64.46
2023-05-23T07:16:15.055Z,63.33
2023-05-23T07:17:05.039Z,65.53
2023-05-23T07:17:55.096Z,67.94
2023-05-23T07:18:45.093Z,70.36
2023-05-23T07:19:35.239Z,73.86
2023-05-23T07:20:25.210Z,79.46
2023-05-23T07:21:15.286Z,81.27
2023-05-23T07:22:05.379Z,85.00
2023-05-23T07:22:55.414Z,86.14
2023-05-23T07:23:45.476Z,90.07
2023-05-23T07:24:35.555Z,90.14
2023-05-23T07:25:25.631Z,97.51
2023-05-23T07:26:15.706Z,96.56
2023-05-23T07:27:05.794Z,99.18
2023-05-23T07:27:55.822Z,101.44
2023-05-23T07:28:45.860Z,98.18
2023-05-23T07:29:35.932Z,99.53
2023-05-23T07:30:26.135Z,103.09
2023-05-23T07:31:16.082Z,104.68
2023-05-23T07:32:06.279Z,104.70
2023-05-23T07:32:56.228Z,104.73
2023-05-23T07:33:46.227Z,105.03
2023-05-23T07:34:36.292Z,105.95
2023-05-23T07:35:26.381Z,105.33
2023-05-23T07:36:16.416Z,97.99
2023-05-23T07:37:06.492Z,99.83
2023-05-23T07:37:56.523Z,102.48
2023-05-23T07:38:46.582Z,95.14
2023-05-23T07:39:36.649Z,89.27
2023-05-23T07:40:26.713Z,86.00
2023-05-23T07:41:16.782Z,90.41
2023-05-23T07:42:06.831Z,92.15
2023-05-23T07:42:56.866Z,93.81
2023-05-23T07:43:46.939Z,97.82
2023-05-23T07:44:37.010Z,97.01
2023-05-23T07:45:27.073Z,99.59
2023-05-23T07:46:17.170Z,100.21
2023-05-23T07:47:07.201Z,101.29
2023-05-23T07:47:57.283Z,104.21
2023-05-23T07:48:47.282Z,104.47
2023-05-23T07:49:37.359Z,102.19
2023-05-23T07:50:27.390Z,99.60
2023-05-23T07:51:17.466Z,95.30
2023-05-23T07:52:07.537Z,97.06
2023-05-23T07:52:57.545Z,96.36
2023-05-23T07:53:47.587Z,99.04
2023-05-23T07:54:37.662Z,100.72
2023-05-23T07:55:27.687Z,104.89
2023-05-23T07:56:17.754Z,109.89
2023-05-23T07:57:07.812Z,101.70
2023-05-23T07:57:57.849Z,106.53
2023-05-23T07:58:47.901Z,105.28
2023-05-23T07:59:37.979Z,106.00
2023-05-23T08:00:28.054Z,103.56
2023-05-23T08:01:18.118Z,104.80
2023-05-23T08:02:08.237Z,106.54
2023-05-23T08:02:58.297Z,107.99
2023-05-23T08:03:48.390Z,108.07
2023-05-23T08:04:38.425Z,109.27
2023-05-23T08:05:28.413Z,108.20
2023-05-23T08:06:18.475Z,107.33
2023-05-23T08:07:08.556Z,109.52
2023-05-23T08:07:58.613Z,109.63
2023-05-23T08:08:48.670Z,111.63
2023-05-23T08:09:38.727Z,111.44
2023-05-23T08:10:28.821Z,106.30
2023-05-23T08:11:18.874Z,108.30
2023-05-23T08:12:08.920Z,110.08
2023-05-23T08:12:58.963Z,108.08
2023-05-23T08:13:49.019Z,106.44
2023-05-23T08:14:50.455Z,104.24
2023-05-23T08:15:30.171Z,100.58
2023-05-23T08:16:19.322Z,102.06
2023-05-23T08:17:09.392Z,102.95
2023-05-23T08:17:59.475Z,104.66
2023-05-23T08:18:49.430Z,106.68
2023-05-23T08:19:39.608Z,108.94
2023-05-23T08:20:29.515Z,111.08
2023-05-23T08:21:19.569Z,108.52
2023-05-23T08:22:09.686Z,107.70
2023-05-23T08:22:59.694Z,108.87
2023-05-23T08:23:49.751Z,109.43
2023-05-23T08:24:39.817Z,110.80
2023-05-23T08:25:29.870Z,110.10
2023-05-23T08:26:19.930Z,108.87
2023-05-23T08:27:09.985Z,109.87
2023-05-23T08:28:00.028Z,108.38
2023-05-23T08:28:50.073Z,111.83
2023-05-23T08:29:40.149Z,110.72
2023-05-23T08:30:30.213Z,112.54
2023-05-23T08:31:20.282Z,114.31
2023-05-23T08:32:10.428Z,114.68
2023-05-23T08:33:00.470Z,117.73
2023-05-23T08:33:50.491Z,120.37
2023-05-23T08:34:40.544Z,118.56
2023-05-23T08:35:30.643Z,118.80
2023-05-23T08:36:20.687Z,117.17
2023-05-23T08:37:10.736Z,119.39
2023-05-23T08:38:00.766Z,117.46
2023-05-23T08:38:50.845Z,115.56
2023-05-23T08:39:40.912Z,115.48
2023-05-23T08:40:30.996Z,114.05
2023-05-23T08:41:21.059Z,116.29
2023-05-23T08:42:11.180Z,114.08
2023-05-23T08:43:01.180Z,116.26
2023-05-23T08:43:51.241Z,117.96
2023-05-23T08:44:41.305Z,115.13
2023-05-23T08:45:31.384Z,117.27
2023-05-23T08:46:21.513Z,118.14
2023-05-23T08:47:11.516Z,117.75
2023-05-23T08:48:01.659Z,114.69
2023-05-23T08:48:51.580Z,116.93
2023-05-23T08:49:41.663Z,118.15
2023-05-23T08:50:31.717Z,116.25
2023-05-23T08:51:21.825Z,117.31
2023-05-23T08:52:11.886Z,119.34
2023-05-23T08:53:01.968Z,123.57
2023-05-23T08:53:53.183Z,122.65
2023-05-23T08:54:42.055Z,122.76
2023-05-23T08:55:32.112Z,122.82
2023-05-23T08:56:22.181Z,122.75
2023-05-23T08:57:12.256Z,120.71
2023-05-23T08:58:02.279Z,118.11
2023-05-23T08:58:52.352Z,121.18
2023-05-23T08:59:42.395Z,122.67
2023-05-23T09:00:32.466Z,121.56
2023-05-23T09:01:22.531Z,124.50
2023-05-23T09:02:12.577Z,125.72
2023-05-23T09:03:02.722Z,122.36
2023-05-23T09:03:52.640Z,124.90
2023-05-23T09:04:42.716Z,128.11
2023-05-23T09:05:32.836Z,124.39
2023-05-23T09:06:22.834Z,123.85
2023-05-23T09:07:12.967Z,122.49
2023-05-23T09:08:02.960Z,117.99
2023-05-23T09:08:53.019Z,119.35
2023-05-23T09:09:43.085Z,117.21
2023-05-23T09:10:33.165Z,119.37
2023-05-23T09:11:23.225Z,115.88
2023-05-23T09:12:13.315Z,116.93
2023-05-23T09:13:03.335Z,118.06
2023-05-23T09:13:53.402Z,117.72
2023-05-23T09:14:43.475Z,119.04
2023-05-23T09:15:33.547Z,122.46
2023-05-23T09:16:23.638Z,123.61
2023-05-23T09:17:13.684Z,122.53
2023-05-23T09:18:03.728Z,124.34
2023-05-23T09:18:53.807Z,126.66
2023-05-23T09:19:43.872Z,127.35
2023-05-23T09:20:33.930Z,124.86
2023-05-23T09:21:24.008Z,126.19
2023-05-23T09:22:14.097Z,125.56
2023-05-23T09:23:04.154Z,128.26
2023-05-23T09:23:54.197Z,127.98
2023-05-23T09:24:44.275Z,124.48
2023-05-23T09:25:34.337Z,127.30
2023-05-23T09:26:24.417Z,123.44
2023-05-23T09:27:14.459Z,122.56
2023-05-23T09:28:04.494Z,124.37
2023-05-23T09:28:54.569Z,126.12
2023-05-23T09:29:44.653Z,126.13
2023-05-23T09:30:34.681Z,125.95
2023-05-23T09:31:24.789Z,123.84
2023-05-23T09:32:14.823Z,124.23
2023-05-23T09:33:06.035Z,125.01
2023-05-23T09:33:55.140Z,127.21
2023-05-23T09:34:45.212Z,122.45
2023-05-23T09:35:35.251Z,121.12
2023-05-23T09:36:25.310Z,119.17
2023-05-23T09:37:15.360Z,113.98
2023-05-23T09:38:05.391Z,114.49
2023-05-23T09:38:55.479Z,116.67
2023-05-23T09:39:46.548Z,116.71
2023-05-23T09:40:35.635Z,116.83
2023-05-23T09:41:25.657Z,119.69
2023-05-23T09:42:15.741Z,121.17
2023-05-23T09:43:05.764Z,123.28
2023-05-23T09:43:55.847Z,125.93
2023-05-23T09:44:45.909Z,124.98
2023-05-23T09:45:35.936Z,123.48
2023-05-23T09:46:26.057Z,116.90
2023-05-23T09:47:16.132Z,111.84
2023-05-23T09:48:06.123Z,111.80
2023-05-23T09:48:56.125Z,113.84
2023-05-23T09:49:46.201Z,112.92
2023-05-23T09:50:36.229Z,111.61
2023-05-23T09:51:26.272Z,108.95
2023-05-23T09:52:16.306Z,110.77
2023-05-23T09:53:07.346Z,109.27
2023-05-23T09:53:56.381Z,105.14
2023-05-23T09:54:46.494Z,107.85
2023-05-23T09:55:36.495Z,108.54
2023-05-23T09:56:26.575Z,110.29
2023-05-23T09:57:16.620Z,111.24
2023-05-23T09:58:06.655Z,111.36
2023-05-23T09:58:56.720Z,107.25
2023-05-23T09:59:46.810Z,105.60
2023-05-23T10:00:36.819Z,105.02
2023-05-23T10:01:26.920Z,107.25
2023-05-23T10:02:16.956Z,107.67
2023-05-23T10:03:07.056Z,107.12
2023-05-23T10:03:59.654Z,108.18
2023-05-23T10:04:47.191Z,104.74
2023-05-23T10:05:37.157Z,101.37
2023-05-23T10:06:27.241Z,100.41
2023-05-23T10:07:17.306Z,99.04
2023-05-23T10:08:07.355Z,100.42
2023-05-23T10:08:57.394Z,94.15
2023-05-23T10:09:47.445Z,100.76
2023-05-23T10:10:37.603Z,103.51
2023-05-23T10:11:27.549Z,101.26
2023-05-23T10:12:17.660Z,99.56
2023-05-23T10:13:07.657Z,101.30
2023-05-23T10:13:58.222Z,102.09
2023-05-23T10:14:47.779Z,96.47
2023-05-23T10:15:37.785Z,98.98
2023-05-23T10:16:27.852Z,98.98
2023-05-23T10:17:17.989Z,99.38
2023-05-23T10:18:08.015Z,98.43
2023-05-23T10:18:58.101Z,99.54
2023-05-23T10:19:48.048Z,102.97
2023-05-23T10:20:38.107Z,102.55
2023-05-23T10:21:28.171Z,102.59
2023-05-23T10:22:18.214Z,106.36
2023-05-23T10:23:08.256Z,104.82
2023-05-23T10:23:58.283Z,103.05
2023-05-23T10:24:48.320Z,101.58
2023-05-23T10:25:38.349Z,97.73
2023-05-23T10:26:28.472Z,97.30
2023-05-23T10:27:18.474Z,99.54
2023-05-23T10:28:08.519Z,100.22
2023-05-23T10:28:58.544Z,103.53
2023-05-23T10:29:48.625Z,102.86
2023-05-23T10:30:38.738Z,101.91
2023-05-23T10:31:28.762Z,103.79
2023-05-23T10:32:18.770Z,101.87
2023-05-23T10:33:08.850Z,101.17
2023-05-23T10:33:58.841Z,100.17
2023-05-23T10:34:48.913Z,98.97
2023-05-23T10:35:39.566Z,97.80
2023-05-23T10:36:29.021Z,95.24
2023-05-23T10:37:19.066Z,97.40
2023-05-23T10:38:09.095Z,94.70
2023-05-23T10:38:59.168Z,93.16
2023-05-23T10:39:49.253Z,93.28